createdAt,value
2023-08-14T00:00:49.781Z,16.50
2023-08-14T00:03:35.962Z,16.50
2023-08-14T00:06:04.472Z,18.00
2023-08-14T00:08:33.249Z,17.50
2023-08-14T00:11:01.607Z,16.33
2023-08-14T00:13:30.446Z,16.67
2023-08-14T00:15:58.805Z,16.75
2023-08-14T00:18:27.515Z,18.00
2023-08-14T00:20:55.886Z,16.25
2023-08-14T00:23:24.506Z,18.00
2023-08-14T00:25:52.845Z,16.00
2023-08-14T00:28:21.478Z,16.75
2023-08-14T00:30:49.834Z,16.50
2023-08-14T00:33:18.572Z,16.75
2023-08-14T00:35:46.845Z,18.25
2023-08-14T00:38:15.617Z,16.75
2023-08-14T00:40:44.443Z,16.25
2023-08-14T00:43:13.662Z,16.33
2023-08-14T00:45:46.202Z,16.50
2023-08-14T00:48:16.331Z,16.50
2023-08-14T00:50:44.927Z,17.00
2023-08-14T00:53:15.712Z,17.00
2023-08-14T00:55:44.224Z,16.25
2023-08-14T00:58:13.512Z,17.00
2023-08-14T01:00:43.635Z,15.50
2023-08-14T01:03:12.876Z,17.00
2023-08-14T01:05:41.453Z,17.00
2023-08-14T01:08:10.212Z,18.33
2023-08-14T01:10:57.332Z,16.75
2023-08-14T01:13:42.796Z,16.50
2023-08-14T01:16:12.716Z,16.00
2023-08-14T01:18:44.105Z,16.00
2023-08-14T01:21:18.392Z,17.50
2023-08-14T01:24:24.398Z,16.00
2023-08-14T01:26:53.261Z,17.00
2023-08-14T01:29:21.940Z,15.75
2023-08-14T01:31:50.208Z,15.00
2023-08-14T01:34:18.903Z,15.00
2023-08-14T01:37:01.209Z,13.75
2023-08-14T01:39:37.643Z,16.50
2023-08-14T01:42:13.711Z,16.33
2023-08-14T01:44:44.244Z,15.50
2023-08-14T01:47:14.672Z,15.25
2023-08-14T01:49:44.147Z,15.75
2023-08-14T01:52:12.565Z,15.00
2023-08-14T01:54:41.398Z,15.67
2023-08-14T01:57:09.753Z,15.00
2023-08-14T01:59:46.572Z,15.75
2023-08-14T02:02:15.600Z,15.25
2023-08-14T02:04:45.491Z,16.00
2023-08-14T02:07:13.890Z,15.75
2023-08-14T02:09:42.803Z,15.00
2023-08-14T02:12:11.101Z,13.50
2023-08-14T02:14:39.834Z,15.00
2023-08-14T02:17:08.310Z,16.00
2023-08-14T02:19:37.123Z,16.00
2023-08-14T02:22:06.318Z,17.00
2023-08-14T02:24:34.956Z,15.00
2023-08-14T02:27:03.291Z,15.00
2023-08-14T02:29:32.140Z,15.25
2023-08-14T02:32:00.456Z,15.00
2023-08-14T02:34:49.771Z,15.00
2023-08-14T02:37:19.375Z,17.25
2023-08-14T02:39:49.788Z,15.25
2023-08-14T02:42:19.874Z,15.50
2023-08-14T02:44:49.449Z,16.50
2023-08-14T02:47:19.076Z,16.50
2023-08-14T02:49:47.812Z,16.75
2023-08-14T02:52:16.446Z,15.25
2023-08-14T02:54:45.632Z,15.00
2023-08-14T02:57:14.068Z,15.50
2023-08-14T02:59:42.713Z,15.33
2023-08-14T03:02:11.012Z,15.25
2023-08-14T03:04:39.673Z,15.25
2023-08-14T03:07:07.958Z,15.67
2023-08-14T03:09:37.061Z,15.33
2023-08-14T03:12:05.653Z,15.33
2023-08-14T03:14:34.420Z,14.25
2023-08-14T03:17:02.761Z,15.00
2023-08-14T03:19:31.389Z,14.00
2023-08-14T03:21:59.673Z,14.00
2023-08-14T03:24:28.422Z,15.50
2023-08-14T03:26:56.807Z,13.75
2023-08-14T03:29:25.956Z,15.00
2023-08-14T03:31:54.659Z,14.25
2023-08-14T03:34:23.376Z,15.25
2023-08-14T03:36:51.572Z,14.00
2023-08-14T03:39:22.163Z,13.75
2023-08-14T03:41:50.715Z,14.00
2023-08-14T03:44:19.792Z,14.25
2023-08-14T03:46:48.120Z,15.50
2023-08-14T03:49:17.137Z,14.00
2023-08-14T03:51:45.556Z,13.50
2023-08-14T03:54:14.475Z,14.00
2023-08-14T03:56:42.766Z,14.00
2023-08-14T03:59:11.350Z,13.75
2023-08-14T04:01:44.589Z,15.25
2023-08-14T04:04:13.299Z,13.25
2023-08-14T04:06:41.889Z,15.50
2023-08-14T04:09:10.684Z,16.33
2023-08-14T04:11:38.855Z,14.75
2023-08-14T04:14:07.744Z,15.25
2023-08-14T04:16:45.444Z,15.25
2023-08-14T04:19:16.567Z,15.25
2023-08-14T04:21:45.092Z,15.75
2023-08-14T04:24:14.114Z,15.33
2023-08-14T04:26:42.541Z,14.33
2023-08-14T04:29:11.648Z,15.00
2023-08-14T04:31:41.837Z,15.00
2023-08-14T04:34:11.983Z,14.25
2023-08-14T04:36:42.224Z,15.00
2023-08-14T04:39:11.207Z,15.00
2023-08-14T04:41:39.995Z,15.25
2023-08-14T04:44:08.605Z,15.50
2023-08-14T04:46:53.420Z,15.50
2023-08-14T04:49:28.164Z,15.25
2023-08-14T04:51:56.479Z,15.50
2023-08-14T04:54:28.474Z,14.25
2023-08-14T04:56:56.951Z,15.50
2023-08-14T04:59:26.782Z,15.00
2023-08-14T05:01:55.667Z,15.50
2023-08-14T05:04:25.972Z,15.00
2023-08-14T05:06:54.694Z,13.75
2023-08-14T05:09:27.288Z,15.00
2023-08-14T05:12:01.020Z,15.25
2023-08-14T05:14:29.723Z,14.25
2023-08-14T05:16:59.076Z,15.50
2023-08-14T05:19:27.756Z,14.50
2023-08-14T05:21:56.021Z,14.50
2023-08-14T05:24:24.882Z,15.50
2023-08-14T05:26:53.074Z,15.00
2023-08-14T05:29:21.649Z,14.00
2023-08-14T05:31:49.851Z,14.75
2023-08-14T05:34:18.941Z,14.00
2023-08-14T05:36:47.158Z,15.00
2023-08-14T05:39:15.823Z,15.00
2023-08-14T05:41:43.994Z,15.00
2023-08-14T05:44:12.572Z,15.33
2023-08-14T05:46:46.534Z,13.75
2023-08-14T05:49:17.521Z,15.25
2023-08-14T05:51:46.178Z,15.00
2023-08-14T05:54:14.742Z,15.50
2023-08-14T05:56:44.395Z,13.25
2023-08-14T05:59:13.020Z,15.00
2023-08-14T06:01:41.284Z,15.25
2023-08-14T06:04:10.074Z,15.25
2023-08-14T06:06:38.318Z,16.25
2023-08-14T06:09:07.927Z,15.75
2023-08-14T06:11:36.923Z,16.50
2023-08-14T06:14:05.899Z,15.00
2023-08-14T06:16:34.265Z,16.25
2023-08-14T06:19:02.906Z,15.25
2023-08-14T06:21:31.151Z,15.25
2023-08-14T06:23:59.692Z,16.67
2023-08-14T06:26:27.864Z,16.75
2023-08-14T06:28:56.411Z,22.00
2023-08-14T06:31:24.779Z,18.00
2023-08-14T06:33:53.412Z,17.00
2023-08-14T06:36:22.175Z,15.50
2023-08-14T06:38:50.732Z,16.33
2023-08-14T06:41:18.890Z,17.00
2023-08-14T06:43:47.571Z,15.00
2023-08-14T06:46:15.798Z,16.00
2023-08-14T06:48:44.675Z,14.33
2023-08-14T06:51:12.966Z,16.50
2023-08-14T06:53:41.516Z,15.00
2023-08-14T06:56:10.141Z,15.25
2023-08-14T06:58:38.923Z,16.25
2023-08-14T07:01:08.665Z,15.50
2023-08-14T07:03:37.390Z,15.25
2023-08-14T07:06:05.788Z,14.25
2023-08-14T07:08:34.565Z,15.50
2023-08-14T07:11:02.812Z,15.00
2023-08-14T07:13:31.867Z,15.00
2023-08-14T07:16:00.428Z,15.33
2023-08-14T07:18:29.282Z,15.50
2023-08-14T07:20:59.435Z,15.25
2023-08-14T07:23:28.051Z,15.25
2023-08-14T07:25:59.024Z,15.00
2023-08-14T07:28:27.632Z,16.75
2023-08-14T07:30:55.967Z,15.33
2023-08-14T07:33:24.676Z,15.25
2023-08-14T07:35:53.012Z,15.50
2023-08-14T07:38:21.943Z,16.67
2023-08-14T07:40:50.381Z,15.25
2023-08-14T07:43:19.026Z,15.25
2023-08-14T07:45:47.355Z,14.25
2023-08-14T07:48:15.936Z,15.25
2023-08-14T07:50:44.210Z,15.00
2023-08-14T07:53:12.784Z,16.50
2023-08-14T07:55:41.081Z,15.25
2023-08-14T07:58:10.122Z,16.00
2023-08-14T08:00:38.402Z,15.50
2023-08-14T08:03:07.669Z,15.50
2023-08-14T08:05:36.195Z,15.50
2023-08-14T08:08:05.558Z,15.25
2023-08-14T08:10:34.122Z,16.50
2023-08-14T08:13:02.937Z,16.67
2023-08-14T08:15:32.275Z,15.00
2023-08-14T08:18:00.908Z,16.75
2023-08-14T08:20:29.338Z,15.00
2023-08-14T08:22:57.968Z,15.25
2023-08-14T08:25:26.251Z,17.00
2023-08-14T08:27:54.941Z,16.00
2023-08-14T08:30:23.248Z,15.25
2023-08-14T08:32:51.806Z,16.67
2023-08-14T08:35:20.179Z,16.75
2023-08-14T08:37:48.732Z,16.00
2023-08-14T08:40:17.193Z,15.00
2023-08-14T08:42:46.896Z,16.33
2023-08-14T08:45:17.290Z,17.00
2023-08-14T08:47:50.683Z,16.50
2023-08-14T08:50:19.054Z,16.75
2023-08-14T08:52:47.855Z,16.75
2023-08-14T08:55:19.646Z,16.50
2023-08-14T08:57:50.379Z,15.25
2023-08-14T09:00:18.916Z,16.00
2023-08-14T09:02:47.582Z,17.00
2023-08-14T09:05:16.300Z,15.50
2023-08-14T09:07:46.285Z,16.00
2023-08-14T09:10:16.087Z,16.75
2023-08-14T09:12:45.099Z,16.50
2023-08-14T09:15:13.461Z,18.00
2023-08-14T09:17:42.060Z,16.50
2023-08-14T09:20:20.139Z,18.00
2023-08-14T09:23:00.100Z,17.67
2023-08-14T09:25:28.682Z,16.75
2023-08-14T09:27:57.716Z,19.00
2023-08-14T09:30:27.656Z,16.25
2023-08-14T09:32:57.168Z,17.75
2023-08-14T09:35:25.672Z,18.00
2023-08-14T09:37:54.759Z,17.25
2023-08-14T09:40:23.137Z,17.50
2023-08-14T09:42:52.034Z,16.67
2023-08-14T09:45:25.154Z,17.75
2023-08-14T09:47:59.282Z,17.75
2023-08-14T09:50:31.579Z,17.25
2023-08-14T09:53:02.161Z,18.00
2023-08-14T09:55:31.020Z,16.50
2023-08-14T09:58:00.231Z,17.00
2023-08-14T10:00:32.117Z,17.00
2023-08-14T10:03:04.263Z,16.00
2023-08-14T10:05:34.894Z,16.50
2023-08-14T10:08:03.823Z,16.00
2023-08-14T10:10:33.130Z,17.50
2023-08-14T10:13:06.477Z,16.25
2023-08-14T10:15:39.106Z,16.50
2023-08-14T10:18:17.970Z,18.50
2023-08-14T10:20:49.239Z,17.50
2023-08-14T10:23:18.499Z,17.00
2023-08-14T10:25:52.081Z,18.00
2023-08-14T10:28:21.587Z,16.67
2023-08-14T10:30:50.153Z,17.50
2023-08-14T10:33:20.581Z,17.00
2023-08-14T10:35:55.405Z,17.75
2023-08-14T10:38:43.723Z,16.67
2023-08-14T10:41:12.036Z,18.25
2023-08-14T10:43:41.499Z,18.00
2023-08-14T10:46:13.428Z,17.75
2023-08-14T10:48:43.888Z,17.00
2023-08-14T10:51:17.772Z,16.00
2023-08-14T10:53:46.455Z,17.00
2023-08-14T10:56:15.167Z,16.00
2023-08-14T10:58:51.662Z,16.00
2023-08-14T11:01:19.994Z,17.00
2023-08-14T11:03:59.777Z,16.67
2023-08-14T11:06:30.318Z,18.00
2023-08-14T11:09:01.024Z,16.00
2023-08-14T11:11:29.496Z,15.33
2023-08-14T11:13:58.322Z,16.75
2023-08-14T11:16:27.119Z,16.50
2023-08-14T11:18:58.834Z,17.75
2023-08-14T11:21:32.063Z,17.00
2023-08-14T11:24:01.571Z,16.25
2023-08-14T11:26:31.663Z,18.25
2023-08-14T11:29:00.303Z,18.00
2023-08-14T11:31:34.349Z,16.50
2023-08-14T11:34:04.086Z,18.25
2023-08-14T11:36:35.177Z,16.50
2023-08-14T11:39:05.429Z,16.33
2023-08-14T11:41:36.882Z,15.00
2023-08-14T11:44:05.660Z,16.50
2023-08-14T11:46:34.083Z,16.75
2023-08-14T11:49:02.715Z,16.00
2023-08-14T11:51:30.933Z,17.75
2023-08-14T11:54:03.230Z,16.25
2023-08-14T11:56:31.463Z,16.75
2023-08-14T11:59:07.209Z,16.25
2023-08-14T12:01:38.510Z,16.25
2023-08-14T12:04:08.661Z,16.50
2023-08-14T12:06:37.142Z,17.00
2023-08-14T12:09:11.237Z,16.75
2023-08-14T12:11:40.021Z,16.33
2023-08-14T12:14:09.175Z,16.50
2023-08-14T12:16:41.282Z,16.75
2023-08-14T12:19:11.181Z,15.50
2023-08-14T12:21:39.891Z,16.25
2023-08-14T12:24:08.597Z,17.25
2023-08-14T12:26:42.229Z,16.50
2023-08-14T12:29:11.364Z,16.25
2023-08-14T12:31:39.883Z,16.25
2023-08-14T12:34:08.584Z,16.00
2023-08-14T12:36:37.171Z,15.50
2023-08-14T12:39:05.985Z,15.50
2023-08-14T12:41:34.331Z,15.25
2023-08-14T12:44:03.155Z,16.75
2023-08-14T12:46:31.478Z,17.00
2023-08-14T12:49:00.112Z,15.00
2023-08-14T12:51:28.375Z,15.25
2023-08-14T12:53:57.006Z,15.25
2023-08-14T12:56:25.352Z,16.25
2023-08-14T12:58:56.003Z,15.25
2023-08-14T13:01:25.185Z,15.25
2023-08-14T13:03:55.275Z,14.50
2023-08-14T13:06:25.252Z,17.00
2023-08-14T13:08:53.946Z,17.00
2023-08-14T13:11:22.346Z,15.25
2023-08-14T13:13:51.341Z,16.75
2023-08-14T13:16:20.003Z,15.33
2023-08-14T13:18:48.737Z,15.00
2023-08-14T13:21:17.026Z,15.00
2023-08-14T13:23:45.884Z,15.75
2023-08-14T13:26:26.569Z,15.00
2023-08-14T13:28:56.616Z,16.75
2023-08-14T13:31:25.086Z,15.50
2023-08-14T13:33:53.714Z,15.00
2023-08-14T13:36:22.032Z,15.25
2023-08-14T13:38:50.662Z,15.25
2023-08-14T13:41:19.008Z,15.25
2023-08-14T13:43:48.091Z,15.25
2023-08-14T13:46:16.407Z,15.75
2023-08-14T13:48:45.645Z,15.50
2023-08-14T13:51:15.207Z,15.25
2023-08-14T13:53:44.156Z,15.25
2023-08-14T13:56:12.422Z,15.50
2023-08-14T13:58:40.971Z,17.00
2023-08-14T14:01:09.337Z,16.00
2023-08-14T14:03:40.184Z,15.00
2023-08-14T14:06:11.105Z,15.00
2023-08-14T14:08:39.755Z,15.25
2023-08-14T14:11:07.985Z,16.00
2023-08-14T14:13:36.744Z,17.00
2023-08-14T14:16:05.298Z,15.50
2023-08-14T14:18:33.960Z,16.50
2023-08-14T14:21:02.215Z,15.50
2023-08-14T14:23:30.884Z,16.75
2023-08-14T14:25:59.113Z,13.75
2023-08-14T14:28:30.236Z,17.00
2023-08-14T14:30:59.007Z,15.25
2023-08-14T14:33:27.670Z,18.00
2023-08-14T14:35:56.029Z,15.50
2023-08-14T14:38:24.693Z,14.75
2023-08-14T14:40:52.863Z,15.25
2023-08-14T14:43:21.404Z,15.75
2023-08-14T14:45:49.693Z,15.25
2023-08-14T14:48:18.257Z,15.25
2023-08-14T14:50:56.022Z,15.00
2023-08-14T14:53:24.532Z,15.00
2023-08-14T14:55:52.724Z,16.75
2023-08-14T14:58:40.864Z,15.33
2023-08-14T15:01:09.373Z,15.50
2023-08-14T15:03:38.325Z,15.00
2023-08-14T15:06:06.875Z,15.67
2023-08-14T15:08:35.416Z,15.33
2023-08-14T15:11:03.711Z,15.00
2023-08-14T15:13:32.285Z,14.67
2023-08-14T15:16:01.010Z,13.75
2023-08-14T15:18:30.198Z,17.25
2023-08-14T15:20:58.363Z,15.00
2023-08-14T15:23:26.970Z,15.25
2023-08-14T15:25:55.255Z,15.00
2023-08-14T15:28:23.964Z,15.00
2023-08-14T15:30:52.109Z,15.25
2023-08-14T15:33:22.000Z,15.00
2023-08-14T15:35:50.197Z,15.25
2023-08-14T15:38:18.707Z,15.25
2023-08-14T15:40:48.237Z,15.50
2023-08-14T15:43:17.075Z,15.75
2023-08-14T15:45:45.330Z,16.00
2023-08-14T15:48:14.016Z,17.00
2023-08-14T15:50:43.670Z,15.25
2023-08-14T15:53:12.167Z,15.25
2023-08-14T15:55:40.570Z,16.00
2023-08-14T15:58:08.999Z,15.00
2023-08-14T16:00:37.209Z,15.00
2023-08-14T16:03:07.781Z,16.25
2023-08-14T16:05:36.249Z,17.50
2023-08-14T16:08:05.207Z,16.50
2023-08-14T16:10:33.753Z,17.50
2023-08-14T16:13:02.331Z,16.00
2023-08-14T16:15:30.562Z,16.67
2023-08-14T16:17:59.080Z,17.00
2023-08-14T16:20:27.271Z,16.67
2023-08-14T16:22:55.914Z,15.50
2023-08-14T16:25:24.200Z,17.00
2023-08-14T16:27:52.729Z,16.50
2023-08-14T16:30:20.920Z,15.50
2023-08-14T16:32:49.575Z,16.67
2023-08-14T16:35:17.794Z,15.25
2023-08-14T16:37:46.348Z,15.50
2023-08-14T16:40:14.626Z,16.50
2023-08-14T16:42:43.137Z,15.50
2023-08-14T16:45:13.581Z,16.25
2023-08-14T16:47:43.059Z,18.00
2023-08-14T16:50:11.926Z,17.00
2023-08-14T16:52:40.423Z,17.00
2023-08-14T16:55:09.005Z,17.75
2023-08-14T16:57:37.861Z,16.67
2023-08-14T17:00:07.076Z,16.25
2023-08-14T17:02:37.793Z,17.00
2023-08-14T17:05:08.731Z,17.00
2023-08-14T17:07:37.415Z,16.00
2023-08-14T17:10:05.682Z,17.00
2023-08-14T17:12:34.234Z,17.50
2023-08-14T17:15:02.413Z,16.75
2023-08-14T17:17:32.698Z,16.75
2023-08-14T17:20:01.032Z,16.50
2023-08-14T17:22:29.659Z,16.25
2023-08-14T17:24:57.907Z,16.50
2023-08-14T17:27:45.279Z,17.75
2023-08-14T17:30:13.931Z,14.67
2023-08-14T17:32:42.534Z,16.75
2023-08-14T17:35:10.908Z,17.00
2023-08-14T17:37:39.469Z,16.50
2023-08-14T17:40:08.421Z,15.33
2023-08-14T17:42:36.936Z,16.50
2023-08-14T17:45:05.548Z,16.75
2023-08-14T17:47:35.466Z,18.50
2023-08-14T17:50:03.907Z,16.75
2023-08-14T17:52:33.748Z,16.50
2023-08-14T17:55:02.420Z,16.50
2023-08-14T17:57:31.332Z,16.50
2023-08-14T17:59:59.499Z,16.33
2023-08-14T18:02:28.229Z,16.50
2023-08-14T18:04:56.506Z,16.75
2023-08-14T18:07:25.188Z,17.33
2023-08-14T18:09:56.012Z,19.00
2023-08-14T18:12:24.880Z,17.00
2023-08-14T18:14:53.134Z,17.25
2023-08-14T18:17:22.007Z,16.50
2023-08-14T18:19:50.438Z,18.00
2023-08-14T18:22:19.236Z,18.00
2023-08-14T18:24:48.829Z,17.50
2023-08-14T18:27:17.722Z,17.50
2023-08-14T18:29:47.331Z,18.00
2023-08-14T18:32:15.934Z,17.00
2023-08-14T18:34:44.468Z,17.50
2023-08-14T18:37:13.009Z,19.00
2023-08-14T18:39:41.232Z,17.50
2023-08-14T18:42:09.750Z,18.00
2023-08-14T18:44:37.940Z,16.50
2023-08-14T18:47:06.939Z,16.67
2023-08-14T18:49:35.291Z,19.00
2023-08-14T18:52:03.926Z,19.25
2023-08-14T18:54:32.192Z,19.00
2023-08-14T18:57:00.660Z,18.00
2023-08-14T18:59:30.467Z,19.75
2023-08-14T19:01:59.110Z,19.25
2023-08-14T19:04:40.643Z,18.00
2023-08-14T19:07:10.842Z,20.50
2023-08-14T19:09:39.236Z,17.75
2023-08-14T19:12:08.588Z,20.00
2023-08-14T19:14:37.382Z,19.50
2023-08-14T19:17:06.080Z,19.25
2023-08-14T19:19:34.404Z,17.75
2023-08-14T19:22:03.042Z,19.67
2023-08-14T19:24:31.266Z,19.00
2023-08-14T19:26:59.775Z,17.75
2023-08-14T19:29:27.992Z,19.00
2023-08-14T19:31:56.515Z,17.75
2023-08-14T19:34:24.663Z,17.75
2023-08-14T19:36:53.299Z,17.75
2023-08-14T19:39:21.492Z,19.00
2023-08-14T19:41:51.032Z,18.00
2023-08-14T19:44:19.262Z,17.67
2023-08-14T19:46:48.040Z,19.00
2023-08-14T19:49:16.212Z,16.25
2023-08-14T19:51:44.641Z,17.67
2023-08-14T19:54:12.849Z,17.75
2023-08-14T19:56:41.354Z,18.00
2023-08-14T19:59:09.764Z,19.00
2023-08-14T20:01:38.353Z,17.50
2023-08-14T20:04:07.145Z,19.33
2023-08-14T20:06:35.871Z,17.50
2023-08-14T20:09:04.410Z,18.50
2023-08-14T20:11:32.942Z,18.00
2023-08-14T20:14:01.052Z,19.00
2023-08-14T20:16:29.516Z,17.33
2023-08-14T20:18:57.866Z,17.25
2023-08-14T20:21:26.479Z,17.75
2023-08-14T20:23:54.628Z,18.25
2023-08-14T20:26:24.476Z,17.00
2023-08-14T20:28:52.608Z,18.00
2023-08-14T20:31:21.997Z,16.75
2023-08-14T20:33:50.924Z,18.00
2023-08-14T20:36:23.025Z,16.75
2023-08-14T20:38:51.236Z,17.50
2023-08-14T20:41:20.027Z,16.50
2023-08-14T20:43:48.220Z,18.00
2023-08-14T20:46:17.151Z,18.25
2023-08-14T20:48:45.355Z,18.25
2023-08-14T20:51:13.855Z,16.50
2023-08-14T20:53:42.047Z,17.75
2023-08-14T20:56:10.507Z,18.00
2023-08-14T20:58:38.720Z,16.50
2023-08-14T21:01:07.197Z,16.75
2023-08-14T21:03:35.446Z,19.00
2023-08-14T21:06:04.199Z,18.00
2023-08-14T21:08:32.431Z,16.33
2023-08-14T21:11:01.026Z,16.25
2023-08-14T21:13:30.593Z,17.25
2023-08-14T21:15:59.910Z,17.25
2023-08-14T21:18:28.211Z,18.00
2023-08-14T21:20:56.673Z,16.75
2023-08-14T21:23:25.765Z,18.00
2023-08-14T21:25:54.242Z,17.50
2023-08-14T21:28:22.618Z,17.75
2023-08-14T21:31:00.893Z,18.00
2023-08-14T21:33:29.207Z,17.00
2023-08-14T21:36:00.074Z,18.00
2023-08-14T21:38:28.347Z,17.33
2023-08-14T21:40:56.944Z,16.00
2023-08-14T21:43:26.008Z,17.00
2023-08-14T21:45:54.483Z,16.67
2023-08-14T21:48:22.630Z,18.00
2023-08-14T21:50:51.150Z,18.00
2023-08-14T21:53:20.132Z,16.75
2023-08-14T21:55:48.638Z,17.00
2023-08-14T21:58:18.098Z,16.25
2023-08-14T22:00:47.193Z,17.50
2023-08-14T22:03:15.633Z,16.50
2023-08-14T22:05:44.460Z,16.00
2023-08-14T22:08:15.358Z,17.75
2023-08-14T22:10:44.095Z,16.50
2023-08-14T22:13:12.489Z,18.00
2023-08-14T22:15:46.349Z,18.00
2023-08-14T22:18:16.132Z,16.50
2023-08-14T22:20:45.029Z,16.50
2023-08-14T22:23:15.141Z,16.50
2023-08-14T22:25:44.644Z,16.75
2023-08-14T22:28:12.924Z,17.75
2023-08-14T22:30:44.074Z,16.50
2023-08-14T22:33:13.827Z,15.25
2023-08-14T22:35:42.356Z,17.00
2023-08-14T22:38:10.528Z,16.75
2023-08-14T22:40:39.076Z,17.75
2023-08-14T22:43:07.181Z,16.00
2023-08-14T22:48:08.852Z,16.50
2023-08-14T22:50:37.751Z,17.00
2023-08-14T22:53:05.939Z,18.25
2023-08-14T22:55:34.448Z,17.50
2023-08-14T22:58:03.184Z,17.75
2023-08-14T23:00:33.710Z,17.67
2023-08-14T23:03:02.088Z,18.00
2023-08-14T23:05:30.848Z,18.33
2023-08-14T23:07:58.988Z,17.75
2023-08-14T23:10:27.453Z,17.75
2023-08-14T23:12:55.635Z,17.25
2023-08-14T23:15:24.212Z,16.75
2023-08-14T23:17:52.597Z,15.00
2023-08-14T23:20:21.286Z,17.00
2023-08-14T23:22:49.475Z,16.50
2023-08-14T23:25:19.084Z,17.50
2023-08-14T23:27:47.337Z,17.00
2023-08-14T23:30:16.080Z,18.00
2023-08-14T23:32:44.302Z,17.00
2023-08-14T23:35:13.127Z,18.25
2023-08-14T23:37:41.305Z,17.75
2023-08-14T23:40:10.586Z,17.00
2023-08-14T23:42:39.766Z,16.50
2023-08-14T23:45:08.489Z,16.50
2023-08-14T23:47:36.789Z,18.00
2023-08-14T23:50:05.698Z,16.75
2023-08-14T23:52:34.015Z,17.00
2023-08-14T23:55:02.531Z,18.25
2023-08-14T23:57:30.717Z,18.00
2023-08-14T23:59:59.267Z,17.00
